This is the latest recevied weather packets stored in our database for station/object BV1EV-2. If no packets are shown the sender has not sent any weather packets the latest 10 day(s).
| Time | Temp. | Humidity | Pressure | Rain* | Wind** | Luminosity | Snow |
|---|---|---|---|---|---|---|---|
| 1778207867 | 25° C | 46% | 1013.5 hPa | - | - | - | - |
| 1778206667 | 24.44° C | 41% | 1013.4 hPa | - | - | - | - |
| 1778205467 | 24.44° C | 40% | 1013.1 hPa | - | - | - | - |
| 1778204267 | 24.44° C | 41% | 1012.9 hPa | - | - | - | - |
| 1778203067 | 24.44° C | 41% | 1012.9 hPa | - | - | - | - |
| 1778201867 | 24.44° C | 41% | 1012.8 hPa | - | - | - | - |
| 1778200668 | 24.44° C | 41% | 1012.8 hPa | - | - | - | - |
| 1778199467 | 25° C | 41% | 1012.6 hPa | - | - | - | - |
| 1778198267 | 25° C | 41% | 1012.5 hPa | - | - | - | - |
| 1778197068 | 25.56° C | 41% | 1012.3 hPa | - | - | - | - |
| 1778195868 | 26.11° C | 42% | 1012.3 hPa | - | - | - | - |
| 1778194668 | 26.67° C | 50% | 1012.3 hPa | - | - | - | - |
| 1778193467 | 26.11° C | 44% | 1012.1 hPa | - | - | - | - |
| 1778192267 | 26.67° C | 48% | 1011.7 hPa | - | - | - | - |
| 1778191068 | 27.22° C | 51% | 1011.5 hPa | - | - | - | - |
| 1778189868 | 26.67° C | 47% | 1011.3 hPa | - | - | - | - |
| 1778188668 | 26.67° C | 45% | 1011.1 hPa | - | - | - | - |
| 1778187468 | 26.67° C | 49% | 1011.1 hPa | - | - | - | - |
| 1778186268 | 26.67° C | 53% | 1010.9 hPa | - | - | - | - |
| 1778185068 | 26.11° C | 46% | 1010.6 hPa | - | - | - | - |
| 1778183868 | 26.11° C | 43% | 1010.4 hPa | - | - | - | - |
| 1778182667 | 27.22° C | 51% | 1010.4 hPa | - | - | - | - |
| 1778181467 | 26.11° C | 41% | 1010.2 hPa | - | - | - | - |
| 1778180268 | 27.22° C | 45% | 1010.1 hPa | - | - | - | - |
| 1778179068 | 27.22° C | 52% | 1010.2 hPa | - | - | - | - |
* Rain since midnight (hover to see other rain measurements)
** Current wind speed in m/s (hover to see current wind gust speed)